createdAt,value
2018-01-15T00:00:28.142Z,74.20
2018-01-15T00:02:56.378Z,74.10
2018-01-15T00:05:24.674Z,74.30
2018-01-15T00:07:52.940Z,74.50
2018-01-15T00:10:21.289Z,74.50
2018-01-15T00:12:51.086Z,74.60
2018-01-15T00:15:20.121Z,74.90
2018-01-15T00:17:48.383Z,74.70
2018-01-15T00:20:16.640Z,74.90
2018-01-15T00:22:44.930Z,75.00
2018-01-15T00:25:13.186Z,75.00
2018-01-15T00:27:41.520Z,75.00
2018-01-15T00:30:09.770Z,74.90
2018-01-15T00:32:38.081Z,74.80
2018-01-15T00:35:06.329Z,74.60
2018-01-15T00:37:34.615Z,74.60
2018-01-15T00:40:02.879Z,74.40
2018-01-15T00:42:31.181Z,74.20
2018-01-15T00:44:59.514Z,74.20
2018-01-15T00:47:27.785Z,75.10
2018-01-15T00:49:56.084Z,74.10
2018-01-15T00:52:24.390Z,74.00
2018-01-15T00:54:52.642Z,74.10
2018-01-15T00:57:20.922Z,74.20
2018-01-15T00:59:49.187Z,74.20
2018-01-15T01:02:17.561Z,74.10
2018-01-15T01:04:45.820Z,73.90
2018-01-15T01:07:14.066Z,73.80
2018-01-15T01:09:43.154Z,73.50
2018-01-15T01:12:12.176Z,73.20
2018-01-15T01:14:40.443Z,73.10
2018-01-15T01:17:09.638Z,73.10
2018-01-15T01:19:37.941Z,73.10
2018-01-15T01:22:06.238Z,73.00
2018-01-15T01:24:34.787Z,73.00
2018-01-15T01:27:03.152Z,73.10
2018-01-15T01:29:31.429Z,73.20
2018-01-15T01:31:59.738Z,73.10
2018-01-15T01:34:28.009Z,73.30
2018-01-15T01:36:56.414Z,73.40
2018-01-15T01:39:24.738Z,73.50
2018-01-15T01:41:53.040Z,73.70
2018-01-15T01:44:21.318Z,73.40
2018-01-15T01:46:49.606Z,73.20
2018-01-15T01:49:17.854Z,73.00
2018-01-15T01:51:46.116Z,72.70
2018-01-15T01:54:14.418Z,72.40
2018-01-15T01:56:42.674Z,72.30
2018-01-15T01:59:10.943Z,72.10
2018-01-15T02:01:39.238Z,71.90
2018-01-15T02:04:07.502Z,71.70
2018-01-15T02:06:35.808Z,71.60
2018-01-15T02:09:04.067Z,71.60
2018-01-15T02:11:32.388Z,71.50
2018-01-15T02:14:01.432Z,71.20
2018-01-15T02:16:29.707Z,71.10
2018-01-15T02:18:57.979Z,71.10
2018-01-15T02:21:26.251Z,71.20
2018-01-15T02:23:54.530Z,71.30
2018-01-15T02:26:22.782Z,71.30
2018-01-15T02:28:51.065Z,71.30
2018-01-15T02:31:19.376Z,71.10
2018-01-15T02:33:47.631Z,70.90
2018-01-15T02:36:15.883Z,71.30
2018-01-15T02:38:44.155Z,71.10
2018-01-15T02:41:12.535Z,71.00
2018-01-15T02:43:40.845Z,71.00
2018-01-15T02:46:09.098Z,71.00
2018-01-15T02:48:37.362Z,71.00
2018-01-15T02:51:05.646Z,71.00
2018-01-15T02:53:33.909Z,71.20
2018-01-15T02:56:02.187Z,71.00
2018-01-15T02:58:30.438Z,71.10
2018-01-15T03:00:58.697Z,71.00
2018-01-15T03:03:27.723Z,71.00
2018-01-15T03:05:56.096Z,71.00
2018-01-15T03:08:24.360Z,71.20
2018-01-15T03:10:52.655Z,71.30
2018-01-15T03:13:20.981Z,71.30
2018-01-15T03:15:49.243Z,71.40
2018-01-15T03:18:17.524Z,71.50
2018-01-15T03:20:45.791Z,71.60
2018-01-15T03:23:14.094Z,71.70
2018-01-15T03:25:42.524Z,71.50
2018-01-15T03:28:10.778Z,71.70
2018-01-15T03:30:39.088Z,71.70
2018-01-15T03:33:07.415Z,71.50
2018-01-15T03:35:35.700Z,71.50
2018-01-15T03:38:03.965Z,71.50
2018-01-15T03:40:32.242Z,71.60
2018-01-15T03:43:00.489Z,71.60
2018-01-15T03:45:29.523Z,71.60
2018-01-15T03:47:57.921Z,71.50
2018-01-15T03:50:26.195Z,71.40
2018-01-15T03:52:54.483Z,71.50
2018-01-15T03:55:22.739Z,71.50
2018-01-15T03:57:51.018Z,71.70
2018-01-15T04:00:19.263Z,71.60
2018-01-15T04:02:47.592Z,71.70
2018-01-15T04:05:16.674Z,71.60
2018-01-15T04:07:44.950Z,71.50
2018-01-15T04:10:13.201Z,71.70
2018-01-15T04:12:41.605Z,71.80
2018-01-15T04:15:09.862Z,71.90
2018-01-15T04:17:38.142Z,72.10
2018-01-15T04:20:06.453Z,72.10
2018-01-15T04:22:34.779Z,72.10
2018-01-15T04:25:03.004Z,71.80
2018-01-15T04:27:31.226Z,72.00
2018-01-15T04:29:59.513Z,72.10
2018-01-15T04:32:27.755Z,72.00
2018-01-15T04:34:56.058Z,71.80
2018-01-15T04:37:24.392Z,72.00
2018-01-15T04:39:53.407Z,72.10
2018-01-15T04:42:21.750Z,72.00
2018-01-15T04:44:50.849Z,72.10
2018-01-15T04:47:19.159Z,72.10
2018-01-15T04:49:47.487Z,72.10
2018-01-15T04:52:15.754Z,72.10
2018-01-15T04:54:44.018Z,72.60
2018-01-15T04:57:12.288Z,72.30
2018-01-15T04:59:40.651Z,72.10
2018-01-15T05:02:08.967Z,72.10
2018-01-15T05:04:37.996Z,72.20
2018-01-15T05:07:06.276Z,72.10
2018-01-15T05:09:34.580Z,71.80
2018-01-15T05:12:02.824Z,72.00
2018-01-15T05:14:31.059Z,72.20
2018-01-15T05:16:59.356Z,72.10
2018-01-15T05:19:27.607Z,72.30
2018-01-15T05:21:56.640Z,72.40
2018-01-15T05:24:24.922Z,72.30
2018-01-15T05:26:53.186Z,72.40
2018-01-15T05:29:21.562Z,72.50
2018-01-15T05:31:50.581Z,72.60
2018-01-15T05:34:18.831Z,72.50
2018-01-15T05:36:47.132Z,72.60
2018-01-15T05:39:15.486Z,72.70
2018-01-15T05:41:43.774Z,72.80
2018-01-15T05:44:12.235Z,72.80
2018-01-15T05:46:40.591Z,72.90
2018-01-15T05:49:09.606Z,72.60
2018-01-15T05:51:37.874Z,72.50
2018-01-15T05:54:06.134Z,72.60
2018-01-15T05:56:35.175Z,72.50
2018-01-15T05:59:03.429Z,72.30
2018-01-15T06:01:31.761Z,72.60
2018-01-15T06:04:00.014Z,72.50
2018-01-15T06:06:28.313Z,72.50
2018-01-15T06:08:57.355Z,72.80
2018-01-15T06:11:25.640Z,72.80
2018-01-15T06:13:53.914Z,72.90
2018-01-15T06:16:22.170Z,73.20
2018-01-15T06:18:50.438Z,72.70
2018-01-15T06:21:18.753Z,72.50
2018-01-15T06:23:47.927Z,72.20
2018-01-15T06:26:16.200Z,72.10
2018-01-15T06:28:44.479Z,72.20
2018-01-15T06:31:12.750Z,72.40
2018-01-15T06:33:41.038Z,72.50
2018-01-15T06:36:09.336Z,72.80
2018-01-15T06:38:37.610Z,72.90
2018-01-15T06:41:05.872Z,73.20
2018-01-15T06:43:34.174Z,73.20
2018-01-15T06:46:02.429Z,73.50
2018-01-15T06:48:30.695Z,74.70
2018-01-15T06:50:59.063Z,74.00
2018-01-15T06:53:27.363Z,74.30
2018-01-15T06:55:55.622Z,74.60
2018-01-15T06:58:23.903Z,74.80
2018-01-15T07:00:52.169Z,75.10
2018-01-15T07:03:20.435Z,75.30
2018-01-15T07:05:48.783Z,75.40
2018-01-15T07:08:17.071Z,75.60
2018-01-15T07:10:45.377Z,75.70
2018-01-15T07:13:13.619Z,75.80
2018-01-15T07:15:41.900Z,75.90
2018-01-15T07:18:10.143Z,76.00
2018-01-15T07:20:39.267Z,76.40
2018-01-15T07:23:07.619Z,76.30
2018-01-15T07:25:35.907Z,76.40
2018-01-15T07:28:04.185Z,76.50
2018-01-15T07:30:33.351Z,76.80
2018-01-15T07:33:01.624Z,76.80
2018-01-15T07:35:30.666Z,77.00
2018-01-15T07:37:59.014Z,77.00
2018-01-15T07:40:27.290Z,77.00
2018-01-15T07:42:56.310Z,77.50
2018-01-15T07:45:24.575Z,77.50
2018-01-15T07:47:52.892Z,77.10
2018-01-15T07:50:21.154Z,77.30
2018-01-15T07:52:49.431Z,77.60
2018-01-15T07:55:17.690Z,77.60
2018-01-15T07:57:45.969Z,77.60
2018-01-15T08:00:14.251Z,77.60
2018-01-15T08:02:42.520Z,77.50
2018-01-15T08:05:10.884Z,77.40
2018-01-15T08:07:39.203Z,77.40
2018-01-15T08:10:07.436Z,77.30
2018-01-15T08:12:35.753Z,77.20
2018-01-15T08:15:04.125Z,77.30
2018-01-15T08:17:32.410Z,77.50
2018-01-15T08:20:01.451Z,77.60
2018-01-15T08:22:29.711Z,77.60
2018-01-15T08:24:58.004Z,77.40
2018-01-15T08:27:26.521Z,77.60
2018-01-15T08:29:55.173Z,77.50
2018-01-15T08:32:23.602Z,77.30
2018-01-15T08:34:51.868Z,78.10
2018-01-15T08:37:20.121Z,77.50
2018-01-15T08:39:48.402Z,77.60
2018-01-15T08:42:16.698Z,77.60
2018-01-15T08:44:45.717Z,77.80
2018-01-15T08:47:13.973Z,77.80
2018-01-15T08:49:42.999Z,77.80
2018-01-15T08:52:11.283Z,77.60
2018-01-15T08:54:39.563Z,77.70
2018-01-15T08:57:07.838Z,77.50
2018-01-15T08:59:36.130Z,77.50
2018-01-15T09:02:04.479Z,77.50
2018-01-15T09:04:32.742Z,77.50
2018-01-15T09:07:01.043Z,77.00
2018-01-15T09:09:30.232Z,76.50
2018-01-15T09:11:58.531Z,76.40
2018-01-15T09:14:26.823Z,76.20
2018-01-15T09:16:55.072Z,76.00
2018-01-15T09:19:23.400Z,75.80
2018-01-15T09:21:51.678Z,75.80
2018-01-15T09:24:19.935Z,75.70
2018-01-15T09:26:49.022Z,75.30
2018-01-15T09:29:17.342Z,75.30
2018-01-15T09:31:45.678Z,75.30
2018-01-15T09:34:14.715Z,75.10
2018-01-15T09:36:42.991Z,75.00
2018-01-15T09:39:11.325Z,74.90
2018-01-15T09:41:40.493Z,74.80
2018-01-15T09:44:08.779Z,74.70
2018-01-15T09:46:37.045Z,74.80
2018-01-15T09:49:05.338Z,74.90
2018-01-15T09:51:33.627Z,74.80
2018-01-15T09:54:02.723Z,73.30
2018-01-15T09:56:30.998Z,73.30
2018-01-15T09:59:00.039Z,73.10
2018-01-15T10:01:28.409Z,73.10
2018-01-15T10:03:56.671Z,73.10
2018-01-15T10:06:24.951Z,73.00
2018-01-15T10:08:53.281Z,73.00
2018-01-15T10:11:21.520Z,73.10
2018-01-15T10:13:49.867Z,73.10
2018-01-15T10:16:18.114Z,73.60
2018-01-15T10:18:47.155Z,73.40
2018-01-15T10:21:15.413Z,73.20
2018-01-15T10:23:43.682Z,73.60
2018-01-15T10:26:11.959Z,73.50
2018-01-15T10:28:40.337Z,73.60
2018-01-15T10:31:08.606Z,73.80
2018-01-15T10:33:36.853Z,74.00
2018-01-15T10:36:05.881Z,74.30
2018-01-15T10:38:34.374Z,74.30
2018-01-15T10:41:02.787Z,74.50
2018-01-15T10:43:31.123Z,74.50
2018-01-15T10:45:59.433Z,74.50
2018-01-15T10:48:28.627Z,74.70
2018-01-15T10:50:56.889Z,74.80
2018-01-15T10:53:25.200Z,74.80
2018-01-15T10:55:54.264Z,74.90
2018-01-15T10:58:22.515Z,74.80
2018-01-15T11:00:50.795Z,74.60
2018-01-15T11:03:19.075Z,74.70
2018-01-15T11:05:47.351Z,74.70
2018-01-15T11:08:15.643Z,74.80
2018-01-15T11:10:43.953Z,74.60
2018-01-15T11:13:12.979Z,74.50
2018-01-15T11:15:41.264Z,74.40
2018-01-15T11:18:09.526Z,74.30
2018-01-15T11:20:37.800Z,74.40
2018-01-15T11:23:06.063Z,73.80
2018-01-15T11:25:34.336Z,72.70
2018-01-15T11:28:02.602Z,72.10
2018-01-15T11:30:31.634Z,72.60
2018-01-15T11:32:59.911Z,71.70
2018-01-15T11:35:28.154Z,71.40
2018-01-15T11:37:56.524Z,71.40
2018-01-15T11:40:24.770Z,71.60
2018-01-15T11:42:53.807Z,72.10
2018-01-15T11:45:22.049Z,72.10
2018-01-15T11:47:51.125Z,72.50
2018-01-15T11:50:20.882Z,72.30
2018-01-15T11:52:49.139Z,72.30
2018-01-15T11:55:18.207Z,72.50
2018-01-15T11:57:46.481Z,72.40
2018-01-15T12:00:16.241Z,72.30
2018-01-15T12:02:44.499Z,72.20
2018-01-15T12:05:12.801Z,72.50
2018-01-15T12:07:41.091Z,72.70
2018-01-15T12:10:09.355Z,73.00
2018-01-15T12:12:37.621Z,73.60
2018-01-15T12:15:05.910Z,73.40
2018-01-15T12:17:34.210Z,73.50
2018-01-15T12:20:04.000Z,73.10
2018-01-15T12:22:32.287Z,73.10
2018-01-15T12:25:00.537Z,72.70
2018-01-15T12:27:28.793Z,72.20
2018-01-15T12:29:57.114Z,71.80
2018-01-15T12:32:25.395Z,72.20
2018-01-15T12:34:53.783Z,71.60
2018-01-15T12:37:22.066Z,72.00
2018-01-15T12:39:51.097Z,71.20
2018-01-15T12:42:19.362Z,71.10
2018-01-15T12:44:47.715Z,71.30
2018-01-15T12:47:16.839Z,70.70
2018-01-15T12:49:45.087Z,70.60
2018-01-15T12:52:14.152Z,70.40
2018-01-15T12:54:43.947Z,70.10
2018-01-15T12:57:12.216Z,70.10
2018-01-15T12:59:40.618Z,70.10
2018-01-15T13:02:08.875Z,69.70
2018-01-15T13:04:37.254Z,70.10
2018-01-15T13:10:03.563Z,69.70
2018-01-15T13:12:32.660Z,69.10
2018-01-15T13:15:00.952Z,69.00
2018-01-15T13:17:29.468Z,70.10
2018-01-15T13:19:57.710Z,70.60
2018-01-15T13:22:26.021Z,71.20
2018-01-15T13:24:54.302Z,72.00
2018-01-15T13:27:23.310Z,72.90
2018-01-15T13:29:52.388Z,73.50
2018-01-15T13:32:20.623Z,73.50
2018-01-15T13:34:48.875Z,73.90
2018-01-15T13:37:17.136Z,75.00
2018-01-15T13:39:46.194Z,76.30
2018-01-15T13:42:14.498Z,76.30
2018-01-15T13:44:43.763Z,75.90
2018-01-15T13:47:12.046Z,75.80
2018-01-15T13:49:40.314Z,75.70
2018-01-15T13:52:08.551Z,75.10
2018-01-15T13:54:36.858Z,75.30
2018-01-15T13:57:05.118Z,75.00
2018-01-15T13:59:33.356Z,74.60
2018-01-15T14:02:01.650Z,74.50
2018-01-15T14:04:29.961Z,75.10
2018-01-15T14:06:59.030Z,75.40
2018-01-15T14:09:27.239Z,75.10
2018-01-15T14:11:55.480Z,75.40
2018-01-15T14:14:23.749Z,75.50
2018-01-15T14:16:52.180Z,75.70
2018-01-15T14:19:21.185Z,75.20
2018-01-15T14:21:49.572Z,75.00
2018-01-15T14:24:17.825Z,74.90
2018-01-15T14:26:47.220Z,74.60
2018-01-15T14:29:17.214Z,74.00
2018-01-15T14:31:45.505Z,73.90
2018-01-15T14:34:13.771Z,73.70
2018-01-15T14:36:42.030Z,74.30
2018-01-15T14:39:10.261Z,73.80
2018-01-15T14:41:38.715Z,72.80
2018-01-15T14:44:06.986Z,73.60
2018-01-15T14:46:36.051Z,74.00
2018-01-15T14:49:04.290Z,73.90
2018-01-15T14:51:32.618Z,73.10
2018-01-15T14:54:00.826Z,72.70
2018-01-15T14:56:29.111Z,72.30
2018-01-15T14:58:58.222Z,72.30
2018-01-15T15:01:26.535Z,72.10
2018-01-15T15:03:54.792Z,72.50
2018-01-15T15:06:23.060Z,73.30
2018-01-15T15:08:51.308Z,73.00
2018-01-15T15:11:19.595Z,73.30
2018-01-15T15:13:47.872Z,74.10
2018-01-15T15:16:16.289Z,73.60
2018-01-15T15:18:44.600Z,74.50
2018-01-15T15:21:13.601Z,73.90
2018-01-15T15:23:41.876Z,73.80
2018-01-15T15:26:10.138Z,75.90
2018-01-15T15:28:38.456Z,75.60
2018-01-15T15:31:06.806Z,76.50
2018-01-15T15:33:35.105Z,74.30
2018-01-15T15:36:03.360Z,74.90
2018-01-15T15:38:31.615Z,74.60
2018-01-15T15:40:59.873Z,74.70
2018-01-15T15:43:28.890Z,74.10
2018-01-15T15:45:57.156Z,74.10
2018-01-15T15:48:25.459Z,74.30
2018-01-15T15:50:53.697Z,73.70
2018-01-15T15:53:22.739Z,73.10
2018-01-15T15:55:51.016Z,73.10
2018-01-15T15:58:19.298Z,72.80
2018-01-15T16:00:47.539Z,72.40
2018-01-15T16:03:15.806Z,72.90
2018-01-15T16:05:44.088Z,72.80
2018-01-15T16:08:12.360Z,73.60
2018-01-15T16:10:40.628Z,73.80
2018-01-15T16:13:08.892Z,74.00
2018-01-15T16:15:37.190Z,74.50
2018-01-15T16:18:05.499Z,75.20
2018-01-15T16:20:33.786Z,75.90
2018-01-15T16:23:02.054Z,76.80
2018-01-15T16:25:30.341Z,77.10
2018-01-15T16:27:58.608Z,77.80
2018-01-15T16:30:26.877Z,78.70
2018-01-15T16:32:55.119Z,77.70
2018-01-15T16:35:23.400Z,77.50
2018-01-15T16:37:51.748Z,77.90
2018-01-15T16:40:19.997Z,78.10
2018-01-15T16:42:48.229Z,79.50
2018-01-15T16:45:16.498Z,79.90
2018-01-15T16:47:44.772Z,80.70
2018-01-15T16:50:13.026Z,80.50
2018-01-15T16:52:41.313Z,80.20
2018-01-15T16:55:09.625Z,80.80
2018-01-15T16:57:37.865Z,81.30
2018-01-15T17:00:06.178Z,81.80
2018-01-15T17:02:34.439Z,81.50
2018-01-15T17:05:02.713Z,82.50
2018-01-15T17:07:30.938Z,82.50
2018-01-15T17:09:59.976Z,82.30
2018-01-15T17:12:28.265Z,82.30
2018-01-15T17:14:56.641Z,82.20
2018-01-15T17:17:24.991Z,83.00
2018-01-15T17:19:53.301Z,82.90
2018-01-15T17:22:21.563Z,83.10
2018-01-15T17:24:49.833Z,81.30
2018-01-15T17:27:18.133Z,82.60
2018-01-15T17:29:46.592Z,83.30
2018-01-15T17:32:14.849Z,81.40
2018-01-15T17:34:43.095Z,81.60
2018-01-15T17:37:11.363Z,80.90
2018-01-15T17:39:39.617Z,81.40
2018-01-15T17:42:07.902Z,81.40
2018-01-15T17:44:36.978Z,82.20
2018-01-15T17:47:05.229Z,82.10
2018-01-15T17:49:33.631Z,81.80
2018-01-15T17:52:01.897Z,82.20
2018-01-15T17:54:30.168Z,82.00
2018-01-15T17:56:58.467Z,81.30
2018-01-15T17:59:26.827Z,80.90
2018-01-15T18:01:55.078Z,81.00
2018-01-15T18:04:23.338Z,80.60
2018-01-15T18:06:51.599Z,80.20
2018-01-15T18:09:19.886Z,81.00
2018-01-15T18:11:48.153Z,80.60
2018-01-15T18:14:16.410Z,79.90
2018-01-15T18:16:44.827Z,79.80
2018-01-15T18:19:13.098Z,79.20
2018-01-15T18:21:41.394Z,78.10
2018-01-15T18:24:09.718Z,77.70
2018-01-15T18:26:37.995Z,77.60
2018-01-15T18:29:06.312Z,77.10
2018-01-15T18:31:34.560Z,76.80
2018-01-15T18:34:02.876Z,77.50
2018-01-15T18:36:31.119Z,76.70
2018-01-15T18:38:59.394Z,76.10
2018-01-15T18:41:27.669Z,76.00
2018-01-15T18:43:55.959Z,75.80
2018-01-15T18:46:24.239Z,75.30
2018-01-15T18:48:53.320Z,75.40
2018-01-15T18:51:21.583Z,75.30
2018-01-15T18:53:49.831Z,75.30
2018-01-15T18:56:18.116Z,75.10
2018-01-15T18:58:46.415Z,74.70
2018-01-15T19:01:14.656Z,74.20
2018-01-15T19:03:43.704Z,74.30
2018-01-15T19:06:11.967Z,74.30
2018-01-15T19:08:40.242Z,75.60
2018-01-15T19:11:08.481Z,76.00
2018-01-15T19:13:36.823Z,76.10
2018-01-15T19:16:05.284Z,75.90
2018-01-15T19:18:33.549Z,76.20
2018-01-15T19:21:01.782Z,76.40
2018-01-15T19:23:30.130Z,76.10
2018-01-15T19:25:58.477Z,76.10
2018-01-15T19:28:26.733Z,76.40
2018-01-15T19:30:55.050Z,76.00
2018-01-15T19:33:23.333Z,75.90
2018-01-15T19:35:52.359Z,76.30
2018-01-15T19:38:20.692Z,76.30
2018-01-15T19:40:48.939Z,76.70
2018-01-15T19:43:17.198Z,76.40
2018-01-15T19:45:45.465Z,76.20
2018-01-15T19:48:13.712Z,76.30
2018-01-15T19:50:42.762Z,76.40
2018-01-15T19:53:11.008Z,76.30
2018-01-15T19:55:39.283Z,76.00
2018-01-15T19:58:07.590Z,76.00
2018-01-15T20:00:35.888Z,75.80
2018-01-15T20:03:04.094Z,76.10
2018-01-15T20:05:33.139Z,76.30
2018-01-15T20:08:01.405Z,76.30
2018-01-15T20:10:29.690Z,76.90
2018-01-15T20:12:57.959Z,77.20
2018-01-15T20:15:26.247Z,77.40
2018-01-15T20:17:54.542Z,77.50
2018-01-15T20:20:24.308Z,78.10
2018-01-15T20:22:52.612Z,78.10
2018-01-15T20:25:20.839Z,78.40
2018-01-15T20:27:49.321Z,78.90
2018-01-15T20:30:17.530Z,79.70
2018-01-15T20:32:45.834Z,80.20
2018-01-15T20:35:14.882Z,81.60
2018-01-15T20:37:43.168Z,81.60
2018-01-15T20:40:11.436Z,82.30
2018-01-15T20:42:39.762Z,83.60
2018-01-15T20:45:08.043Z,83.70
2018-01-15T20:47:36.300Z,84.70
2018-01-15T20:50:04.552Z,84.90
2018-01-15T20:52:32.835Z,85.40
2018-01-15T20:55:01.045Z,85.70
2018-01-15T20:57:29.249Z,86.00
2018-01-15T20:59:57.535Z,86.20
2018-01-15T21:02:25.806Z,85.90
2018-01-15T21:04:54.086Z,86.70
2018-01-15T21:07:22.311Z,85.90
2018-01-15T21:09:52.145Z,85.60
2018-01-15T21:12:20.393Z,85.60
2018-01-15T21:14:48.676Z,85.50
2018-01-15T21:17:16.939Z,85.60
2018-01-15T21:19:45.225Z,85.40
2018-01-15T21:22:13.471Z,85.50
2018-01-15T21:24:42.668Z,86.50
2018-01-15T21:27:11.720Z,87.10
2018-01-15T21:29:39.982Z,87.00
2018-01-15T21:32:08.295Z,87.50
2018-01-15T21:34:36.543Z,87.70
2018-01-15T21:37:04.836Z,88.00
2018-01-15T21:39:33.095Z,89.00
2018-01-15T21:42:02.502Z,87.40
2018-01-15T21:44:30.843Z,87.90
2018-01-15T21:46:59.095Z,88.20
2018-01-15T21:49:28.106Z,88.50
2018-01-15T21:51:56.463Z,88.40
2018-01-15T21:54:24.678Z,88.60
2018-01-15T21:56:52.946Z,88.90
2018-01-15T21:59:21.218Z,89.10
2018-01-15T22:01:49.460Z,89.30
2018-01-15T22:04:18.508Z,89.50
2018-01-15T22:06:46.763Z,89.50
2018-01-15T22:09:15.157Z,89.50
2018-01-15T22:11:43.398Z,90.10
2018-01-15T22:14:11.779Z,89.30
2018-01-15T22:16:40.036Z,87.90
2018-01-15T22:19:08.375Z,87.40
2018-01-15T22:21:36.631Z,86.90
2018-01-15T22:24:04.890Z,86.80
2018-01-15T22:26:33.177Z,87.30
2018-01-15T22:29:01.442Z,87.50
2018-01-15T22:31:29.715Z,87.90
2018-01-15T22:33:58.139Z,88.10
2018-01-15T22:36:26.418Z,88.70
2018-01-15T22:38:54.774Z,88.50
2018-01-15T22:41:23.027Z,88.40
2018-01-15T22:43:51.306Z,88.60
2018-01-15T22:46:19.563Z,88.40
2018-01-15T22:48:47.841Z,88.40
2018-01-15T22:51:16.071Z,88.10
2018-01-15T22:53:44.303Z,88.00
2018-01-15T22:56:12.709Z,87.60
2018-01-15T22:58:40.950Z,87.20
2018-01-15T23:01:09.222Z,87.30
2018-01-15T23:03:37.481Z,87.70
2018-01-15T23:06:05.738Z,87.90
2018-01-15T23:08:34.742Z,88.40
2018-01-15T23:11:02.999Z,88.20
2018-01-15T23:13:32.074Z,88.60
2018-01-15T23:16:00.374Z,88.60
2018-01-15T23:18:29.389Z,90.00
2018-01-15T23:20:57.671Z,89.20
2018-01-15T23:23:25.974Z,89.70
2018-01-15T23:25:54.235Z,89.80
2018-01-15T23:28:22.505Z,89.70
2018-01-15T23:30:50.763Z,89.40
2018-01-15T23:33:19.131Z,88.70
2018-01-15T23:35:47.408Z,87.80
2018-01-15T23:38:15.650Z,87.00
2018-01-15T23:40:43.917Z,86.20
2018-01-15T23:43:12.236Z,86.20
2018-01-15T23:45:41.247Z,85.90
2018-01-15T23:48:09.514Z,85.90
2018-01-15T23:50:37.798Z,85.20
2018-01-15T23:53:06.042Z,85.30
2018-01-15T23:55:34.295Z,84.90
2018-01-15T23:58:03.338Z,84.20
